Time;durP1;ratioP1;P1;durP2;ratioP2;P2;SDS_P1;SDS_P2;PMS_P1;PMS_P2;Temp;Humidity;BMP_temperature;BMP_pressure;BME280_temperature;BME280_humidity;BME280_pressure;Samples;Min_cycle;Max_cycle;Signal;HPM_P1;HPM_P2
2021/12/28 00:00:14;;;;;;;44.45;23.05;;;4.50;99.90;;;;;;4989323;23;20146;-73
2021/12/28 00:02:42;;;;;;;39.67;21.60;;;4.50;99.90;;;;;;4959304;28;20063;-73
2021/12/28 00:05:09;;;;;;;44.85;22.25;;;4.50;99.90;;;;;;4959687;28;20078;-73
2021/12/28 00:07:37;;;;;;;36.78;18.55;;;4.50;99.90;;;;;;4928664;29;20062;-73
2021/12/28 00:10:06;;;;;;;37.38;20.42;;;4.50;99.90;;;;;;4960958;28;20153;-73
2021/12/28 00:12:35;;;;;;;37.97;21.35;;;4.50;99.90;;;;;;4949357;28;20113;-73
2021/12/28 00:15:31;;;;;;;38.05;20.58;;;4.50;99.90;;;;;;4972834;28;20110;-74
2021/12/28 00:18:02;;;;;;;42.38;21.50;;;4.50;99.90;;;;;;4965208;28;20519;-73
2021/12/28 00:20:38;;;;;;;42.85;19.67;;;4.50;99.90;;;;;;4929376;28;20046;-73
2021/12/28 00:23:09;;;;;;;49.30;23.52;;;4.50;99.90;;;;;;4929409;28;20404;-74
2021/12/28 00:25:36;;;;;;;47.28;23.27;;;4.50;99.90;;;;;;4984552;28;20047;-73
2021/12/28 00:28:03;;;;;;;43.08;22.52;;;4.50;99.90;;;;;;4956583;28;20133;-74
2021/12/28 00:30:30;;;;;;;41.25;20.60;;;4.50;99.90;;;;;;4964998;28;20090;-73
2021/12/28 00:32:58;;;;;;;44.95;22.63;;;4.50;99.90;;;;;;4964968;28;20070;-74
2021/12/28 00:35:26;;;;;;;40.03;20.30;;;4.50;99.90;;;;;;4975756;28;20119;-74
2021/12/28 00:37:53;;;;;;;38.65;21.63;;;4.60;99.90;;;;;;4965096;28;20161;-73
2021/12/28 00:40:21;;;;;;;43.75;23.00;;;4.50;99.90;;;;;;4965228;28;20097;-73
2021/12/28 00:42:48;;;;;;;45.88;21.77;;;4.60;99.90;;;;;;4965827;28;20081;-73
2021/12/28 00:45:16;;;;;;;43.92;22.00;;;4.50;99.90;;;;;;4964246;28;20166;-73
2021/12/28 00:47:42;;;;;;;43.35;23.08;;;4.50;99.90;;;;;;4964571;28;20162;-74
2021/12/28 00:50:12;;;;;;;48.05;22.52;;;4.50;99.90;;;;;;4964458;28;20142;-73
2021/12/28 00:52:39;;;;;;;40.88;20.20;;;4.50;99.90;;;;;;4962983;28;20113;-73
2021/12/28 00:55:07;;;;;;;42.88;20.52;;;4.60;99.90;;;;;;4939996;28;20106;-73
2021/12/28 00:57:34;;;;;;;43.40;22.73;;;4.60;99.90;;;;;;4960700;28;20055;-74
2021/12/28 01:00:03;;;;;;;34.67;18.60;;;4.60;99.90;;;;;;4945691;28;20087;-73
2021/12/28 01:02:29;;;;;;;37.33;20.38;;;4.60;99.90;;;;;;4960112;28;20199;-73
2021/12/28 01:04:56;;;;;;;31.80;16.77;;;4.70;99.90;;;;;;4949091;28;20137;-73
2021/12/28 01:07:23;;;;;;;32.30;17.38;;;4.60;99.90;;;;;;4964285;28;20054;-73
2021/12/28 01:09:50;;;;;;;37.60;18.33;;;4.70;99.90;;;;;;4964980;28;20055;-74
2021/12/28 01:12:17;;;;;;;32.58;16.35;;;4.70;99.90;;;;;;4946786;28;20101;-73
2021/12/28 01:14:44;;;;;;;34.17;19.00;;;4.70;99.90;;;;;;4952437;28;20074;-73
2021/12/28 01:17:10;;;;;;;35.13;17.50;;;4.70;99.90;;;;;;4963837;28;20499;-72
2021/12/28 01:19:37;;;;;;;33.40;18.35;;;4.70;99.90;;;;;;4964049;28;20043;-74
2021/12/28 01:22:05;;;;;;;35.35;18.95;;;4.70;99.90;;;;;;4963327;28;20078;-74
2021/12/28 01:24:32;;;;;;;34.03;18.13;;;4.70;99.90;;;;;;4962826;28;20054;-76
2021/12/28 01:27:00;;;;;;;34.35;18.50;;;4.70;99.90;;;;;;4962188;28;20630;-74
2021/12/28 01:29:27;;;;;;;36.30;17.45;;;4.70;99.90;;;;;;4964734;28;20153;-73
2021/12/28 01:31:54;;;;;;;34.65;18.25;;;4.80;99.90;;;;;;4964125;28;20055;-73
2021/12/28 01:34:21;;;;;;;31.75;17.27;;;4.80;99.90;;;;;;4963366;28;20093;-74
2021/12/28 01:36:48;;;;;;;34.15;16.90;;;4.80;99.90;;;;;;4958637;28;20040;-73
2021/12/28 01:39:14;;;;;;;38.97;17.10;;;4.80;99.90;;;;;;4976717;28;20101;-74
2021/12/28 01:41:42;;;;;;;27.05;14.48;;;4.80;99.90;;;;;;4963642;28;20957;-74
2021/12/28 01:44:10;;;;;;;29.08;14.68;;;4.80;99.90;;;;;;4979093;28;20089;-74
2021/12/28 01:46:38;;;;;;;26.00;14.10;;;4.80;99.90;;;;;;4963024;28;20070;-74
2021/12/28 01:49:08;;;;;;;28.48;14.45;;;4.90;99.90;;;;;;4959707;28;20059;-74
2021/12/28 01:51:35;;;;;;;26.85;14.65;;;4.90;99.90;;;;;;4946526;28;20146;-73
2021/12/28 01:54:04;;;;;;;22.80;13.18;;;4.90;99.90;;;;;;4964413;28;20078;-73
2021/12/28 01:56:40;;;;;;;18.98;10.55;;;4.90;99.90;;;;;;4963334;28;20031;-73
2021/12/28 01:59:08;;;;;;;24.80;13.50;;;4.90;99.90;;;;;;4964308;28;20113;-73
2021/12/28 02:01:36;;;;;;;22.60;13.02;;;5.00;99.90;;;;;;4962366;28;20078;-74
2021/12/28 02:04:19;;;;;;;21.60;11.95;;;5.00;99.90;;;;;;4964368;28;20145;-74
2021/12/28 02:06:46;;;;;;;19.70;11.95;;;5.00;99.90;;;;;;4962467;28;20062;-74
2021/12/28 02:09:14;;;;;;;19.40;11.88;;;5.00;99.90;;;;;;4964966;28;20609;-73
2021/12/28 02:11:43;;;;;;;22.00;12.52;;;5.00;99.90;;;;;;4964672;28;20045;-74
2021/12/28 02:14:11;;;;;;;20.58;12.60;;;5.00;99.90;;;;;;4967439;28;20434;-73
2021/12/28 02:16:42;;;;;;;22.10;11.93;;;5.00;99.90;;;;;;4959606;28;20038;-75
2021/12/28 02:19:11;;;;;;;18.88;11.57;;;5.00;99.90;;;;;;4967279;28;20109;-74
2021/12/28 02:21:38;;;;;;;17.67;11.32;;;5.10;99.90;;;;;;4964526;28;20047;-74
2021/12/28 02:24:07;;;;;;;19.42;11.38;;;5.10;99.90;;;;;;4964056;28;20082;-74
2021/12/28 02:26:35;;;;;;;21.27;11.77;;;5.10;99.90;;;;;;4962596;28;20110;-73
2021/12/28 02:29:03;;;;;;;22.45;12.43;;;5.10;99.90;;;;;;4963536;28;20130;-74
2021/12/28 02:31:30;;;;;;;22.25;12.23;;;5.10;99.90;;;;;;4945448;28;20051;-74
2021/12/28 02:33:57;;;;;;;19.80;12.35;;;5.10;99.90;;;;;;4958091;28;20050;-74
2021/12/28 02:36:24;;;;;;;21.13;11.07;;;5.10;99.90;;;;;;4942963;29;20102;-74
2021/12/28 02:38:51;;;;;;;17.80;11.43;;;5.10;99.90;;;;;;4954379;28;20708;-74
2021/12/28 02:41:18;;;;;;;24.17;13.68;;;5.20;99.90;;;;;;4946263;28;20101;-73
2021/12/28 02:43:49;;;;;;;20.08;11.18;;;5.20;99.90;;;;;;4976067;28;20502;-74
2021/12/28 02:46:16;;;;;;;17.23;11.43;;;5.20;99.90;;;;;;4962116;28;20054;-74
2021/12/28 02:48:44;;;;;;;16.73;10.88;;;5.20;99.90;;;;;;4962748;28;20415;-74
2021/12/28 02:51:14;;;;;;;22.30;12.60;;;5.20;99.90;;;;;;4960589;28;20511;-74
2021/12/28 02:53:41;;;;;;;19.30;11.65;;;5.20;99.90;;;;;;4960585;28;20075;-75
2021/12/28 02:56:09;;;;;;;20.08;11.88;;;5.20;99.90;;;;;;4950989;28;20563;-74
2021/12/28 02:58:42;;;;;;;20.75;12.07;;;5.30;99.90;;;;;;4946695;28;20062;-74
2021/12/28 03:01:14;;;;;;;18.35;11.65;;;5.20;99.90;;;;;;4962728;28;20624;-74
2021/12/28 03:03:43;;;;;;;19.00;11.73;;;5.20;99.90;;;;;;4963058;28;20055;-74
2021/12/28 03:06:13;;;;;;;25.20;12.13;;;5.20;99.90;;;;;;4945456;28;20074;-75
2021/12/28 03:08:43;;;;;;;17.25;10.38;;;5.20;99.90;;;;;;4944553;28;20043;-74
2021/12/28 03:11:12;;;;;;;17.88;11.70;;;5.30;99.90;;;;;;4962791;28;20097;-74
2021/12/28 03:13:42;;;;;;;19.20;10.93;;;5.30;99.90;;;;;;4973587;28;20046;-75
2021/12/28 03:16:09;;;;;;;19.08;10.50;;;5.30;99.90;;;;;;4962624;28;20137;-75
2021/12/28 03:18:36;;;;;;;19.40;10.02;;;5.30;99.90;;;;;;4962910;28;20050;-73
2021/12/28 03:21:05;;;;;;;17.83;10.35;;;5.20;99.90;;;;;;4961964;28;20502;-74
2021/12/28 03:23:32;;;;;;;20.13;10.10;;;5.20;99.90;;;;;;4963988;28;20082;-74
2021/12/28 03:25:59;;;;;;;18.60;11.30;;;5.20;99.90;;;;;;4966647;28;20083;-74
2021/12/28 03:28:32;;;;;;;19.27;10.52;;;5.20;99.90;;;;;;4966796;28;20291;-75
2021/12/28 03:31:04;;;;;;;24.45;11.63;;;5.30;99.90;;;;;;4948792;28;20051;-75
2021/12/28 03:33:33;;;;;;;17.38;10.30;;;5.20;99.90;;;;;;4981537;28;20105;-74
2021/12/28 03:36:00;;;;;;;22.67;11.85;;;5.20;99.90;;;;;;4966011;28;20614;-75
2021/12/28 03:38:27;;;;;;;20.88;11.95;;;5.20;99.90;;;;;;4966581;28;20577;-74
2021/12/28 03:40:54;;;;;;;20.58;10.55;;;5.20;99.90;;;;;;4933171;28;20087;-74
2021/12/28 03:43:22;;;;;;;22.20;11.75;;;5.20;99.90;;;;;;4948470;28;20720;-75
2021/12/28 03:45:50;;;;;;;25.60;10.55;;;5.20;99.90;;;;;;4965444;28;20070;-75
2021/12/28 03:48:17;;;;;;;21.58;11.38;;;5.20;99.90;;;;;;4965057;28;20046;-74
2021/12/28 03:50:44;;;;;;;22.20;11.38;;;5.20;99.90;;;;;;4952606;28;20078;-74
2021/12/28 03:53:12;;;;;;;30.35;11.48;;;5.20;99.90;;;;;;4961300;28;20208;-75
2021/12/28 03:55:38;;;;;;;22.38;10.70;;;5.20;99.90;;;;;;4956727;28;20130;-74
2021/12/28 03:58:06;;;;;;;21.92;10.95;;;5.20;99.90;;;;;;4964738;28;20078;-74
2021/12/28 04:00:37;;;;;;;27.90;12.18;;;5.20;99.90;;;;;;4964773;28;20078;-75
2021/12/28 04:03:04;;;;;;;23.23;11.13;;;5.30;99.90;;;;;;4964873;28;20422;-75
2021/12/28 04:05:31;;;;;;;25.15;11.30;;;5.30;99.90;;;;;;4961146;28;20047;-74
2021/12/28 04:07:57;;;;;;;23.75;10.45;;;5.30;99.90;;;;;;4963248;28;20067;-74
2021/12/28 04:13:15;;;;;;;24.15;10.65;;;5.30;99.90;;;;;;4955433;28;20071;-75
2021/12/28 04:15:42;;;;;;;23.33;10.18;;;5.30;99.90;;;;;;4964589;28;20081;-75
2021/12/28 04:18:09;;;;;;;22.65;10.75;;;5.40;99.90;;;;;;4963565;28;20137;-75
2021/12/28 04:20:36;;;;;;;19.67;9.95;;;5.40;99.90;;;;;;4967643;28;20038;-74
2021/12/28 04:23:03;;;;;;;24.35;10.10;;;5.40;99.90;;;;;;4966421;28;20225;-75
2021/12/28 04:25:31;;;;;;;21.80;10.82;;;5.40;99.90;;;;;;4963590;28;20626;-75
2021/12/28 04:27:58;;;;;;;27.95;12.07;;;5.40;99.90;;;;;;4947916;28;20047;-76
2021/12/28 04:30:24;;;;;;;24.70;11.00;;;5.50;99.90;;;;;;4964491;28;20082;-75
2021/12/28 04:32:52;;;;;;;23.67;11.82;;;5.50;99.90;;;;;;4947918;28;20065;-75
2021/12/28 04:35:19;;;;;;;26.20;10.05;;;5.60;99.90;;;;;;4946744;28;20051;-75
2021/12/28 04:37:45;;;;;;;27.20;10.98;;;5.60;99.90;;;;;;4964497;28;20047;-74
2021/12/28 04:40:13;;;;;;;23.30;10.63;;;5.60;99.90;;;;;;4964574;28;20618;-76
2021/12/28 04:42:40;;;;;;;35.60;12.68;;;5.60;99.90;;;;;;4964144;28;20070;-76
2021/12/28 04:45:09;;;;;;;26.45;11.07;;;5.60;99.90;;;;;;4963389;28;20075;-75
2021/12/28 04:47:37;;;;;;;28.52;11.80;;;5.60;99.90;;;;;;4964159;28;20047;-76
2021/12/28 04:50:05;;;;;;;24.90;11.13;;;5.60;99.90;;;;;;4964207;28;20082;-75
2021/12/28 04:52:36;;;;;;;32.30;12.65;;;5.60;99.90;;;;;;4945893;28;20816;-75
2021/12/28 04:55:09;;;;;;;24.80;10.80;;;5.50;99.90;;;;;;4963551;28;20118;-75
2021/12/28 04:57:36;;;;;;;28.65;12.75;;;5.50;99.90;;;;;;4964268;28;20109;-75
2021/12/28 05:00:07;;;;;;;30.17;12.85;;;5.60;99.90;;;;;;4963368;28;20090;-75
2021/12/28 05:02:34;;;;;;;26.70;12.07;;;5.50;99.90;;;;;;4962882;28;20067;-74
2021/12/28 05:05:00;;;;;;;30.17;12.35;;;5.60;99.90;;;;;;4964023;28;20082;-75
2021/12/28 05:07:27;;;;;;;30.42;12.15;;;5.60;99.90;;;;;;4946260;28;20051;-75
2021/12/28 05:09:57;;;;;;;34.72;13.75;;;5.60;99.90;;;;;;4963305;28;20479;-74
2021/12/28 05:12:25;;;;;;;31.58;13.13;;;5.60;99.90;;;;;;4969194;28;20043;-75
2021/12/28 05:14:52;;;;;;;26.55;11.48;;;5.60;99.90;;;;;;4964070;28;20047;-75
2021/12/28 05:17:19;;;;;;;32.47;14.02;;;5.60;99.90;;;;;;4963184;28;20113;-76
2021/12/28 05:19:46;;;;;;;27.83;12.50;;;5.70;99.90;;;;;;4952275;28;20051;-75
2021/12/28 05:22:12;;;;;;;27.25;11.35;;;5.70;99.90;;;;;;4953135;28;20535;-74
2021/12/28 05:24:39;;;;;;;26.35;10.25;;;5.70;99.90;;;;;;4962174;28;20043;-75
2021/12/28 05:27:06;;;;;;;29.73;13.02;;;5.70;99.90;;;;;;4961915;28;20074;-75
2021/12/28 05:29:33;;;;;;;35.17;13.82;;;5.80;99.90;;;;;;4946490;28;20089;-75
2021/12/28 05:32:00;;;;;;;28.40;13.48;;;5.80;99.90;;;;;;4963494;28;20244;-75
2021/12/28 05:34:27;;;;;;;30.80;12.27;;;5.70;99.90;;;;;;4963991;28;20093;-76
2021/12/28 05:36:53;;;;;;;32.67;14.98;;;5.80;99.90;;;;;;4945678;28;20126;-76
2021/12/28 05:39:20;;;;;;;39.20;16.73;;;5.70;99.90;;;;;;4946389;28;20054;-75
2021/12/28 05:41:48;;;;;;;32.83;13.93;;;5.70;99.90;;;;;;4979161;28;20057;-75
2021/12/28 05:44:17;;;;;;;37.92;15.88;;;5.70;99.90;;;;;;4963242;28;20078;-75
2021/12/28 05:46:45;;;;;;;34.80;15.23;;;5.70;99.90;;;;;;4965210;28;20105;-75
2021/12/28 05:49:13;;;;;;;34.50;15.82;;;5.80;99.90;;;;;;4957634;28;20035;-75
2021/12/28 05:51:40;;;;;;;40.60;16.85;;;5.80;99.90;;;;;;4962883;28;20054;-75
2021/12/28 05:54:07;;;;;;;31.17;13.02;;;5.80;99.90;;;;;;4960434;28;20120;-75
2021/12/28 05:56:34;;;;;;;40.35;15.55;;;5.80;99.90;;;;;;4945511;28;20046;-76
2021/12/28 05:59:01;;;;;;;41.60;15.98;;;5.80;99.90;;;;;;4988611;23;20648;-71
2021/12/28 06:01:27;;;;;;;40.88;16.77;;;5.80;99.90;;;;;;4977855;28;20046;-71
2021/12/28 06:03:54;;;;;;;34.58;13.90;;;5.80;99.90;;;;;;4961991;28;20054;-71
2021/12/28 06:06:21;;;;;;;33.30;15.43;;;5.80;99.90;;;;;;4961856;28;20050;-71
2021/12/28 06:08:48;;;;;;;37.50;15.18;;;5.80;99.90;;;;;;4962330;28;20051;-71
2021/12/28 06:11:16;;;;;;;40.15;14.52;;;5.80;99.90;;;;;;4961792;28;20112;-71
2021/12/28 06:13:43;;;;;;;36.05;14.55;;;5.80;99.90;;;;;;4972879;28;20069;-71
2021/12/28 06:16:10;;;;;;;34.00;14.35;;;5.80;99.90;;;;;;4953943;28;20141;-71
2021/12/28 06:18:37;;;;;;;38.60;15.80;;;5.80;99.90;;;;;;4961701;28;20082;-71
2021/12/28 06:21:04;;;;;;;29.00;13.43;;;5.80;99.90;;;;;;4961893;28;20549;-71
2021/12/28 06:23:31;;;;;;;32.63;13.98;;;5.90;99.90;;;;;;4943444;28;20047;-71
2021/12/28 06:25:58;;;;;;;36.22;14.85;;;5.90;99.90;;;;;;4915380;29;20055;-71
2021/12/28 06:28:25;;;;;;;34.53;14.68;;;6.00;99.90;;;;;;4942449;28;20055;-72
2021/12/28 06:30:53;;;;;;;42.20;15.77;;;6.00;99.90;;;;;;4944296;28;20070;-71
2021/12/28 06:33:24;;;;;;;30.60;14.05;;;6.00;99.90;;;;;;4940316;28;20083;-71
2021/12/28 06:35:51;;;;;;;39.92;16.15;;;6.00;99.90;;;;;;4945653;28;20278;-71
2021/12/28 06:38:19;;;;;;;38.38;15.57;;;6.00;99.90;;;;;;4959309;28;20296;-71
2021/12/28 06:40:46;;;;;;;40.30;16.65;;;6.00;99.90;;;;;;4962480;28;20089;-71
2021/12/28 06:43:13;;;;;;;30.85;13.63;;;6.00;99.90;;;;;;4963653;28;20562;-71
2021/12/28 06:45:40;;;;;;;29.45;12.15;;;6.00;99.90;;;;;;4960150;28;20693;-71
2021/12/28 06:48:08;;;;;;;34.47;14.30;;;6.10;99.90;;;;;;4963163;28;20531;-71
2021/12/28 06:50:35;;;;;;;35.75;14.98;;;6.10;99.90;;;;;;4969757;28;20050;-71
2021/12/28 06:53:02;;;;;;;37.42;14.90;;;6.10;99.90;;;;;;4984299;28;20062;-71
2021/12/28 06:55:29;;;;;;;32.08;14.60;;;6.10;99.90;;;;;;4973244;28;20177;-72
2021/12/28 06:57:56;;;;;;;38.05;15.88;;;6.10;99.90;;;;;;4980257;28;20066;-72
2021/12/28 07:00:22;;;;;;;35.53;15.48;;;6.20;99.90;;;;;;4985040;28;20126;-71
2021/12/28 07:02:49;;;;;;;36.38;15.57;;;6.20;99.90;;;;;;4989659;28;20062;-71
2021/12/28 07:05:16;;;;;;;29.77;15.15;;;6.20;99.90;;;;;;4999384;28;20129;-71
2021/12/28 07:07:43;;;;;;;46.85;18.20;;;6.20;99.90;;;;;;4985661;28;20050;-71
2021/12/28 07:10:10;;;;;;;42.70;18.10;;;6.20;99.90;;;;;;4986662;28;20499;-71
2021/12/28 07:12:37;;;;;;;44.38;17.33;;;6.20;99.90;;;;;;4986879;28;20558;-73
2021/12/28 07:15:06;;;;;;;57.15;19.88;;;6.20;99.90;;;;;;4984502;28;20524;-71
2021/12/28 07:17:32;;;;;;;47.00;17.83;;;6.10;99.90;;;;;;4984027;28;20313;-72
2021/12/28 07:19:59;;;;;;;55.70;20.50;;;6.10;99.90;;;;;;4965733;28;20496;-73
2021/12/28 07:22:26;;;;;;;56.13;19.83;;;6.10;99.90;;;;;;4965549;28;20059;-73
2021/12/28 07:24:53;;;;;;;51.17;20.70;;;6.10;99.90;;;;;;4948723;28;20241;-71
2021/12/28 07:27:19;;;;;;;45.53;19.17;;;6.10;99.90;;;;;;4964600;28;20281;-71
2021/12/28 07:29:46;;;;;;;52.65;19.10;;;6.10;99.90;;;;;;4963778;28;20441;-71
2021/12/28 07:32:13;;;;;;;53.30;20.17;;;6.10;99.90;;;;;;4980985;28;20088;-71
2021/12/28 07:34:39;;;;;;;48.78;19.65;;;6.20;99.90;;;;;;4985429;28;20333;-72
2021/12/28 07:37:06;;;;;;;47.42;20.65;;;6.10;99.90;;;;;;4966953;28;20130;-71
2021/12/28 07:39:33;;;;;;;41.65;17.70;;;6.20;99.90;;;;;;4968013;28;20062;-72
2021/12/28 07:42:00;;;;;;;41.88;17.08;;;6.30;99.90;;;;;;4966098;28;20541;-71
2021/12/28 07:44:27;;;;;;;38.13;17.42;;;6.30;99.90;;;;;;4984066;28;20050;-71
2021/12/28 07:46:53;;;;;;;37.22;17.55;;;6.30;99.90;;;;;;4983778;28;20046;-72
2021/12/28 07:49:20;;;;;;;44.92;17.25;;;6.40;99.90;;;;;;4967837;28;20070;-76
2021/12/28 07:51:49;;;;;;;44.25;18.60;;;6.40;99.90;;;;;;4970956;28;20117;-76
2021/12/28 07:54:16;;;;;;;41.50;18.45;;;6.40;99.90;;;;;;4975855;28;20456;-76
2021/12/28 07:56:43;;;;;;;50.35;19.63;;;6.40;99.90;;;;;;4988735;28;20149;-76
2021/12/28 07:59:10;;;;;;;41.55;20.13;;;6.30;99.90;;;;;;4984158;28;20053;-77
2021/12/28 08:01:38;;;;;;;38.00;18.58;;;6.30;99.90;;;;;;4966882;28;20050;-76
2021/12/28 08:04:05;;;;;;;49.30;18.50;;;6.40;99.90;;;;;;4949239;28;20515;-76
2021/12/28 08:06:32;;;;;;;52.83;21.27;;;6.40;99.90;;;;;;4945497;28;20049;-76
2021/12/28 08:08:59;;;;;;;51.05;20.30;;;6.30;99.90;;;;;;4952334;28;20061;-76
2021/12/28 08:11:27;;;;;;;44.90;20.23;;;6.40;99.90;;;;;;4967542;28;20492;-76
2021/12/28 08:13:54;;;;;;;49.00;19.92;;;6.30;99.90;;;;;;4969041;28;20077;-76
2021/12/28 08:16:21;;;;;;;48.70;20.65;;;6.30;99.90;;;;;;4982851;28;20054;-76
2021/12/28 08:18:48;;;;;;;49.65;19.02;;;6.30;99.90;;;;;;4968212;28;20108;-76
2021/12/28 08:21:36;;;;;;;47.83;19.17;;;6.30;99.90;;;;;;4951951;28;20127;-76
2021/12/28 08:24:03;;;;;;;36.97;17.10;;;6.30;99.90;;;;;;4950101;28;20089;-76
2021/12/28 08:26:30;;;;;;;37.25;17.23;;;6.30;99.90;;;;;;4966453;28;20102;-77
2021/12/28 08:28:57;;;;;;;34.58;17.17;;;6.30;99.90;;;;;;4949386;28;20047;-77
2021/12/28 08:31:25;;;;;;;30.45;15.30;;;6.30;99.90;;;;;;4945545;28;20047;-77
2021/12/28 08:33:52;;;;;;;32.47;18.23;;;6.40;99.90;;;;;;4949339;28;20046;-77
2021/12/28 08:36:19;;;;;;;31.30;16.63;;;6.40;99.90;;;;;;4954335;28;20345;-76
2021/12/28 08:38:46;;;;;;;31.35;16.58;;;6.40;99.90;;;;;;4951972;28;20050;-78
2021/12/28 08:41:13;;;;;;;21.98;13.80;;;6.50;99.90;;;;;;4972124;28;20050;-78
2021/12/28 08:43:46;;;;;;;30.00;15.98;;;6.50;99.90;;;;;;4985055;28;20054;-77
2021/12/28 08:46:13;;;;;;;25.77;14.52;;;6.50;99.90;;;;;;4948479;28;20459;-76
2021/12/28 08:48:41;;;;;;;26.13;12.80;;;6.50;99.90;;;;;;4964859;28;20063;-76
2021/12/28 08:51:08;;;;;;;24.77;14.50;;;6.50;99.90;;;;;;4961715;28;20604;-76
2021/12/28 08:53:35;;;;;;;37.17;19.35;;;6.60;99.90;;;;;;5001131;28;20073;-77
2021/12/28 08:56:02;;;;;;;23.60;14.82;;;6.70;99.90;;;;;;4948527;28;20284;-77
2021/12/28 08:58:28;;;;;;;22.42;12.32;;;6.80;99.90;;;;;;4966284;28;20066;-77
2021/12/28 09:00:55;;;;;;;28.42;14.07;;;6.80;99.90;;;;;;4963920;28;20109;-76
2021/12/28 09:03:22;;;;;;;48.78;24.58;;;6.80;99.90;;;;;;4966779;28;20059;-77
2021/12/28 09:05:49;;;;;;;26.13;14.38;;;6.80;99.90;;;;;;4963824;28;20062;-77
2021/12/28 09:08:18;;;;;;;20.08;11.80;;;6.80;99.90;;;;;;4966394;28;20109;-77
2021/12/28 09:10:46;;;;;;;23.80;16.48;;;6.80;99.90;;;;;;4959163;28;20569;-76
2021/12/28 09:13:14;;;;;;;21.08;14.15;;;6.80;99.90;;;;;;4996714;28;20124;-77
2021/12/28 09:15:42;;;;;;;23.55;13.38;;;6.90;99.90;;;;;;4981583;28;20081;-76
2021/12/28 09:18:09;;;;;;;25.33;15.02;;;6.90;99.90;;;;;;4965516;28;20051;-77
2021/12/28 09:20:36;;;;;;;17.33;11.75;;;6.90;99.90;;;;;;4988278;28;20042;-77
2021/12/28 09:23:10;;;;;;;20.60;12.30;;;6.80;99.90;;;;;;4978408;28;20054;-77
2021/12/28 09:25:38;;;;;;;22.58;13.35;;;6.90;99.90;;;;;;4971264;28;20521;-77
2021/12/28 09:28:07;;;;;;;19.88;10.77;;;6.90;99.90;;;;;;4969374;28;20503;-77
2021/12/28 09:30:35;;;;;;;20.30;10.18;;;6.90;99.90;;;;;;4969496;28;20058;-77
2021/12/28 09:33:02;;;;;;;23.63;12.63;;;6.90;99.90;;;;;;4988760;28;20054;-78
2021/12/28 09:35:29;;;;;;;19.83;11.18;;;6.90;99.90;;;;;;4986925;28;20117;-77
2021/12/28 09:37:56;;;;;;;20.05;11.77;;;6.90;99.90;;;;;;4971501;28;20093;-77
2021/12/28 09:40:30;;;;;;;23.77;12.80;;;7.00;99.90;;;;;;4972078;28;20046;-77
2021/12/28 09:42:57;;;;;;;18.23;10.10;;;6.90;99.90;;;;;;4970859;28;20046;-78
2021/12/28 09:45:24;;;;;;;20.70;12.13;;;6.90;99.90;;;;;;4986886;28;20058;-78
2021/12/28 09:47:51;;;;;;;27.23;13.80;;;7.00;99.90;;;;;;4976574;28;20056;-78
2021/12/28 09:50:18;;;;;;;20.15;11.60;;;7.00;99.90;;;;;;4988888;28;20050;-77
2021/12/28 09:52:48;;;;;;;14.57;9.38;;;7.00;99.90;;;;;;4988613;28;20062;-77
2021/12/28 09:55:18;;;;;;;22.20;10.75;;;7.00;99.90;;;;;;4983231;28;20466;-77
2021/12/28 09:57:46;;;;;;;21.60;10.20;;;7.10;99.90;;;;;;4982247;28;20046;-76
2021/12/28 10:00:14;;;;;;;13.57;8.98;;;7.10;99.90;;;;;;4982753;28;20628;-76
2021/12/28 10:03:01;;;;;;;18.52;10.00;;;7.20;99.90;;;;;;4972361;28;20046;-77
2021/12/28 10:05:29;;;;;;;20.35;11.77;;;7.20;99.90;;;;;;4953243;28;20378;-76
2021/12/28 10:07:58;;;;;;;16.83;9.88;;;7.30;99.90;;;;;;4984016;28;20047;-76
2021/12/28 10:10:27;;;;;;;17.77;9.70;;;7.20;99.90;;;;;;4984226;28;20124;-76
2021/12/28 10:12:58;;;;;;;18.48;10.70;;;7.20;99.90;;;;;;4986010;28;20054;-76
2021/12/28 10:15:28;;;;;;;21.92;12.35;;;7.10;99.90;;;;;;4967537;28;20145;-78
2021/12/28 10:17:57;;;;;;;29.30;15.27;;;7.10;99.90;;;;;;4966775;28;20077;-77
2021/12/28 10:20:28;;;;;;;21.95;12.88;;;7.10;99.90;;;;;;4965919;28;20054;-77
2021/12/28 10:23:10;;;;;;;23.33;12.02;;;7.00;99.90;;;;;;4968591;28;20280;-77
2021/12/28 10:26:05;;;;;;;35.00;17.58;;;7.00;99.90;;;;;;4985184;28;20070;-77
2021/12/28 10:28:34;;;;;;;;;;;7.00;99.90;;;;;;4960971;28;20051;-77
2021/12/28 10:31:05;;;;;;;45.22;21.38;;;7.00;99.90;;;;;;4965706;28;19993;-77
2021/12/28 10:33:36;;;;;;;25.60;13.82;;;7.00;99.90;;;;;;4980297;28;20434;-77
2021/12/28 10:36:10;;;;;;;13.93;8.88;;;7.10;99.90;;;;;;4966675;28;20046;-77
2021/12/28 10:38:40;;;;;;;11.15;7.43;;;7.20;99.90;;;;;;4983262;28;20039;-77
2021/12/28 10:41:14;;;;;;;17.80;7.60;;;7.20;99.90;;;;;;4984103;28;20109;-77
2021/12/28 10:43:45;;;;;;;16.05;7.95;;;7.20;99.90;;;;;;4983652;28;20556;-77
2021/12/28 10:46:22;;;;;;;11.65;6.95;;;7.20;99.90;;;;;;4984581;28;20050;-79
2021/12/28 10:48:52;;;;;;;10.15;7.00;;;7.20;99.90;;;;;;4978187;28;20465;-76
2021/12/28 10:51:22;;;;;;;11.85;6.95;;;7.20;99.90;;;;;;4986231;28;20055;-76
2021/12/28 10:56:54;;;;;;;13.50;7.60;;;7.20;99.90;;;;;;4989676;28;20042;-76
2021/12/28 10:59:26;;;;;;;9.95;7.40;;;7.20;99.90;;;;;;4974936;28;20265;-77
2021/12/28 11:01:54;;;;;;;13.27;6.38;;;7.20;99.90;;;;;;4953078;28;20085;-77
2021/12/28 11:04:33;;;;;;;;;;;7.30;99.90;;;;;;4980091;28;20127;-77
2021/12/28 11:07:03;;;;;;;9.68;5.63;;;7.40;99.90;;;;;;4962368;28;20154;-77
2021/12/28 11:09:30;;;;;;;7.70;5.10;;;7.40;99.90;;;;;;4978652;28;20085;-77
2021/12/28 11:11:58;;;;;;;5.90;3.88;;;7.40;99.90;;;;;;4974523;28;20047;-77
2021/12/28 11:14:29;;;;;;;7.75;4.82;;;7.40;99.90;;;;;;4981900;28;20042;-76
2021/12/28 11:17:02;;;;;;;6.70;4.60;;;7.40;99.90;;;;;;4974511;28;20122;-76
2021/12/28 11:19:31;;;;;;;8.18;5.28;;;7.40;99.90;;;;;;5001250;28;20037;-78
2021/12/28 11:22:04;;;;;;;9.07;4.60;;;7.40;99.90;;;;;;4992107;28;20054;-78
2021/12/28 11:24:34;;;;;;;8.15;4.32;;;7.40;99.90;;;;;;4977653;28;20093;-78
2021/12/28 11:27:02;;;;;;;7.82;4.43;;;7.40;99.90;;;;;;4985967;28;20054;-78
2021/12/28 11:29:49;;;;;;;5.20;3.53;;;7.50;99.90;;;;;;4969177;28;20514;-77
2021/12/28 11:32:17;;;;;;;5.75;3.88;;;7.50;99.90;;;;;;4985739;28;20112;-78
2021/12/28 11:34:46;;;;;;;4.50;3.38;;;7.50;99.90;;;;;;4957355;28;20077;-78
2021/12/28 11:37:26;;;;;;;4.32;2.92;;;7.50;99.90;;;;;;4967498;28;20294;-77
2021/12/28 11:39:59;;;;;;;5.35;3.22;;;7.60;99.90;;;;;;4968224;28;20053;-78
2021/12/28 11:42:29;;;;;;;;;;;7.60;99.90;;;;;;4964659;28;20054;-77
2021/12/28 11:44:56;;;;;;;4.03;2.60;;;7.60;99.90;;;;;;4965246;28;20025;-77
2021/12/28 11:47:23;;;;;;;6.03;3.00;;;7.60;99.90;;;;;;4965421;28;20065;-79
2021/12/28 11:49:54;;;;;;;4.55;2.90;;;7.70;99.90;;;;;;4971724;28;20058;-78
2021/12/28 11:52:21;;;;;;;3.13;2.60;;;7.80;99.90;;;;;;4990455;28;20046;-78
2021/12/28 11:54:51;;;;;;;3.83;2.10;;;7.80;99.90;;;;;;4975321;28;20046;-78
2021/12/28 11:57:29;;;;;;;4.20;1.98;;;7.80;99.90;;;;;;4986050;28;20058;-77
2021/12/28 12:00:01;;;;;;;12.18;6.63;;;7.90;99.90;;;;;;4989247;28;20047;-81
2021/12/28 12:02:47;;;;;;;6.05;3.97;;;7.90;99.90;;;;;;4990135;28;20085;-81
2021/12/28 12:05:20;;;;;;;5.25;3.10;;;7.90;99.90;;;;;;4970145;28;20058;-81
2021/12/28 12:08:11;;;;;;;3.53;2.70;;;8.00;99.90;;;;;;4970516;28;20066;-81
2021/12/28 12:10:45;;;;;;;5.57;2.88;;;8.00;99.90;;;;;;4971943;28;20157;-83
2021/12/28 12:13:25;;;;;;;3.53;2.40;;;8.10;99.90;;;;;;4956939;28;20050;-82
2021/12/28 12:15:56;;;;;;;5.90;3.13;;;8.00;99.90;;;;;;4978330;28;20102;-81
2021/12/28 12:18:28;;;;;;;7.85;4.40;;;8.00;99.90;;;;;;4981101;28;20051;-74
2021/12/28 12:20:59;;;;;;;10.07;4.20;;;8.00;99.90;;;;;;4983424;28;20081;-74
2021/12/28 12:23:39;;;;;;;6.53;3.38;;;8.00;99.90;;;;;;4981376;28;20065;-75
2021/12/28 12:26:10;;;;;;;2.90;2.15;;;8.10;99.90;;;;;;4976300;28;20072;-75
2021/12/28 12:28:49;;;;;;;3.53;3.22;;;8.10;99.90;;;;;;4984794;28;20137;-75
2021/12/28 12:31:26;;;;;;;3.17;2.75;;;8.10;99.90;;;;;;4964189;28;20046;-75
2021/12/28 12:33:54;;;;;;;1.90;1.73;;;8.20;99.90;;;;;;4966783;28;20069;-74
2021/12/28 12:36:44;;;;;;;2.92;1.65;;;8.10;99.90;;;;;;4964871;28;20130;-76
2021/12/28 12:39:11;;;;;;;2.97;1.23;;;8.10;99.90;;;;;;4977291;28;20066;-76
2021/12/28 12:41:51;;;;;;;3.83;1.80;;;8.10;99.90;;;;;;4966182;28;20137;-76
2021/12/28 12:44:21;;;;;;;2.63;1.60;;;8.00;99.90;;;;;;4983789;28;20078;-76
2021/12/28 12:46:52;;;;;;;3.83;2.00;;;8.00;99.90;;;;;;4977473;28;20081;-75
2021/12/28 12:49:25;;;;;;;6.18;2.33;;;8.00;99.90;;;;;;4983513;28;20186;-75
2021/12/28 12:51:58;;;;;;;1.73;1.58;;;8.00;99.90;;;;;;4949579;28;20077;-75
2021/12/28 12:54:29;;;;;;;2.95;2.13;;;8.00;99.90;;;;;;4965263;28;20116;-75